Alameda, OR

1:15 PM PST on February 08, 2016 (GMT -0800)
Concordia University | | Change Station
CLOSE
Current Station
Personal Weather Station
Location: Portland, OR
Elevation: 141 ft
Nearby Weather Stations

Elev 141 ft 45.57 °N, 122.64 °W | Updated 23 seconds ago

Scattered Clouds
Scattered Clouds
58.3 °F
Feels Like 58.3 °F
N
4.9
Wind Variable Wind from ENE
Gusts 5.0 mph

Today
High -- | Low -- °F
--% Chance of Precip.
Yesterday
High -- | Low -- °F
Precip. -- in
Pressure 30.37 in
Visibility 10.0 miles
Clouds Scattered Clouds 25000 ft
Dew Point 42 °F
Humidity 54%
Rainfall 0.00 in
Snow Depth Not available.
7:23 AM 5:26 PM
New Moon, 0% visible
METAR KPDX 082053Z 33003KT 10SM SCT250 14/04 A3037 RMK AO2 SLP284 T01440044 58022
Pressure 30.37 in
Visibility 10.0 miles
Clouds Scattered Clouds 25000 ft
Dew Point 42 °F
Humidity 54%
Rainfall 0.00 in
Snow Depth Not available.
7:23 AM 5:26 PM
New Moon, 0% visible
METAR KPDX 082053Z 33003KT 10SM SCT250 14/04 A3037 RMK AO2 SLP284 T01440044 58022

10-Day Weather Forecast

Almanac

Astronomy

Feb. 08, 2016 Rise Set
Actual Time
Civil Twilight
Nautical Twilight
Astronomical Twilight
Moon
Length of Visible Light
Length of Day
Tomorrow will be .
, % of the Moon is Illuminated

Today's Extremes

State Highs State Lows

Community

WunderPhotos

Upload Photos

1,891,516 photos uploaded!

WunderBlog® & News

Nearby

Air Quality

  Air Quality AQ Index Pollutant
Not available.

Snow Depth

Station Depth Elevation

Earthquake Activity

City Distance Mag. Time & Date
Minimum magnitude displayed is 2.5.

Coastal Water Temperatures

Place Temperature

Stations

Nearby Weather Stations

Station Location Temp. Windchill Dew Point Humidity Wind Precip. Elev Updated Type
                   

Watches & Warnings

There are currently no watches in effect.